createdAt,value
2022-12-14T00:09:58.223Z,50.30
2022-12-14T00:31:48.874Z,50.10
2022-12-14T00:53:35.706Z,44.10
2022-12-14T01:15:21.863Z,47.70
2022-12-14T01:37:07.776Z,46.20
2022-12-14T01:58:53.835Z,43.70
2022-12-14T02:20:49.747Z,42.40
2022-12-14T02:42:45.166Z,44.10
2022-12-14T03:04:32.438Z,45.70
2022-12-14T03:26:28.861Z,48.20
2022-12-14T04:10:28.344Z,56.10
2022-12-14T04:32:19.381Z,53.50
2022-12-14T04:54:15.110Z,58.10
2022-12-14T05:16:02.042Z,56.70
2022-12-14T05:37:49.510Z,58.30
2022-12-14T05:59:36.328Z,62.70
2022-12-14T06:21:28.235Z,63.40
2022-12-14T06:43:17.101Z,62.50
2022-12-14T07:05:03.022Z,64.50
2022-12-14T07:26:48.789Z,60.40
2022-12-14T07:48:35.221Z,58.80
2022-12-14T08:10:21.132Z,62.40
2022-12-14T08:32:07.520Z,62.10
2022-12-14T08:53:56.544Z,61.70
2022-12-14T09:15:42.827Z,57.40
2022-12-14T09:37:28.657Z,60.10
2022-12-14T09:59:20.881Z,53.40
2022-12-14T10:21:13.314Z,55.10
2022-12-14T10:43:30.131Z,65.20
2022-12-14T11:05:29.828Z,64.80
2022-12-14T11:27:22.192Z,59.40
2022-12-14T11:49:24.021Z,54.80
2022-12-14T12:11:20.598Z,50.90
2022-12-14T12:33:17.157Z,44.10
2022-12-14T12:55:09.932Z,43.20
2022-12-14T13:16:59.746Z,37.50
2022-12-14T13:39:05.075Z,28.50
2022-12-14T14:01:02.460Z,29.00
2022-12-14T14:23:25.506Z,36.90
2022-12-14T14:45:31.052Z,37.30
2022-12-14T15:07:21.697Z,45.60
2022-12-14T15:29:15.234Z,53.90
2022-12-14T15:51:04.484Z,61.30
2022-12-14T16:12:54.150Z,46.70
2022-12-14T16:34:40.628Z,43.80
2022-12-14T16:56:28.557Z,45.30
2022-12-14T17:18:14.305Z,44.10
2022-12-14T17:40:01.224Z,43.50
2022-12-14T18:01:47.117Z,47.90
2022-12-14T18:23:36.336Z,47.10
2022-12-14T18:45:25.177Z,55.30
2022-12-14T19:07:10.891Z,55.40
2022-12-14T19:28:59.866Z,56.80
2022-12-14T19:50:49.325Z,58.60
2022-12-14T20:12:36.966Z,61.20
2022-12-14T20:34:23.170Z,55.20
2022-12-14T20:56:12.901Z,55.30
2022-12-14T21:17:59.129Z,58.70
2022-12-14T21:39:51.806Z,52.70
2022-12-14T22:01:40.066Z,56.40
2022-12-14T22:23:26.374Z,55.60
2022-12-14T22:45:15.002Z,55.20
2022-12-14T23:07:00.712Z,69.60
2022-12-14T23:29:04.299Z,67.70
2022-12-14T23:51:08.102Z,75.10
